Hauptseite
METAR-TAF:

METAR-TAF

Flughäfen :

Middle Wallop Airfield

Middle Wallop, England

Breite: 51-09N, Länge: 001-34W, Höhe: 91 m

Beobachtung

Neuester Wetterbericht von vor 43 Minuten, um 14:50 UTC
Wind 5 kt aus Süd
Temperatur 25°C
Luftfeuchtigkeit 54%
Luftdruck 1015 hPa
Sichtweite 10 km oder mehr

METAR: EGVP 271450Z AUTO 18005KT 9999 // FEW028/// 25/15 Q1015

Zeit: 16:33 (15:33 UTC)


TAF: fehlend

Wetterbeobachtungen und Prognosen von mehr als 4000 Flughäfen (METAR und TAF Bericht).

Die verfügbaren Stationen werden durch gelbe und rote Markierungen auf der Karte dargestellt.

Führen Sie die Maus auf sie, um den Namen der Station zu sehen.

Darauf klicken, um die Beobachtung von Wetterbeobachtungen und Prognosen zu sehen.

Um die Karte zu ändern : klicken Sie auf den grünen Tasten mit einem schwarzen Kreuz Zum Vergrößern, auf den grünen Button mit einem Gedankenstrich zu verkleinern, oder auf die grünen Pfeile für benachbarte Karten.


METAR-TAF: